Time;durP1;ratioP1;P1;durP2;ratioP2;P2;SDS_P1;SDS_P2;PMS_P1;PMS_P2;Temp;Humidity;BMP_temperature;BMP_pressure;BME280_temperature;BME280_humidity;BME280_pressure;Samples;Min_cycle;Max_cycle;Signal;HPM_P1;HPM_P2
2022/08/10 00:01:24;;;;;;;4.13;2.90;;;21.00;53.40;;;;;;5050469;28;20261;-61
2022/08/10 00:03:49;;;;;;;3.50;2.47;;;21.00;53.70;;;;;;5049711;28;20587;-61
2022/08/10 00:06:15;;;;;;;8.55;5.40;;;21.00;53.60;;;;;;5048076;28;20178;-60
2022/08/10 00:08:40;;;;;;;13.40;8.93;;;20.90;53.60;;;;;;5051473;28;20272;-60
2022/08/10 00:11:06;;;;;;;22.55;16.13;;;20.90;53.90;;;;;;5054644;28;20261;-61
2022/08/10 00:13:32;;;;;;;11.32;8.00;;;20.90;53.90;;;;;;5054266;28;20686;-61
2022/08/10 00:15:57;;;;;;;5.03;2.60;;;20.80;53.80;;;;;;5054189;28;20173;-61
2022/08/10 00:18:24;;;;;;;3.78;1.85;;;20.80;53.80;;;;;;5054464;28;20311;-60
2022/08/10 00:20:49;;;;;;;5.82;4.90;;;20.80;54.00;;;;;;5054356;28;20178;-60
2022/08/10 00:23:16;;;;;;;6.03;3.97;;;20.70;54.10;;;;;;5053487;28;20668;-61
2022/08/10 00:25:41;;;;;;;2.80;2.60;;;20.70;54.40;;;;;;5052605;28;20204;-61
2022/08/10 00:28:07;;;;;;;3.25;2.30;;;20.70;54.60;;;;;;5053312;28;20669;-61
2022/08/10 00:30:32;;;;;;;2.85;2.00;;;20.70;54.60;;;;;;5054053;28;20186;-60
2022/08/10 00:32:58;;;;;;;6.80;5.20;;;20.70;54.50;;;;;;5054214;28;20243;-61
2022/08/10 00:35:24;;;;;;;16.77;11.13;;;20.70;54.40;;;;;;5053537;28;20180;-61
2022/08/10 00:37:50;;;;;;;14.45;8.68;;;20.70;54.60;;;;;;5053855;28;20182;-61
2022/08/10 00:40:15;;;;;;;20.35;13.93;;;20.70;54.50;;;;;;5053866;28;20200;-61
2022/08/10 00:42:41;;;;;;;6.95;5.25;;;20.70;54.60;;;;;;5053337;28;20180;-60
2022/08/10 00:45:06;;;;;;;5.18;4.28;;;20.70;54.40;;;;;;5053912;28;20265;-61
2022/08/10 00:47:32;;;;;;;8.50;5.80;;;20.60;54.50;;;;;;5053168;28;20227;-60
2022/08/10 00:49:58;;;;;;;6.55;3.90;;;20.60;54.60;;;;;;5053592;28;20260;-61
2022/08/10 00:52:25;;;;;;;3.20;2.90;;;20.50;54.60;;;;;;5054013;28;20589;-60
2022/08/10 00:54:51;;;;;;;3.20;2.42;;;20.50;54.70;;;;;;5053456;28;20185;-61
2022/08/10 00:57:18;;;;;;;7.03;2.88;;;20.50;54.80;;;;;;5052923;28;20182;-60
2022/08/10 00:59:44;;;;;;;2.50;2.25;;;20.40;54.90;;;;;;5053767;28;20340;-61
2022/08/10 01:02:10;;;;;;;3.53;2.25;;;20.40;54.90;;;;;;5052411;28;20178;-60
2022/08/10 01:04:35;;;;;;;2.67;1.73;;;20.40;55.10;;;;;;5046660;28;20261;-60
2022/08/10 01:07:08;;;;;;;2.67;1.90;;;20.30;55.00;;;;;;5052288;28;20287;-60
2022/08/10 01:09:45;;;;;;;4.47;2.17;;;20.30;55.20;;;;;;5053258;28;20181;-60
2022/08/10 01:12:16;;;;;;;8.63;5.60;;;20.20;55.30;;;;;;5052905;28;20185;-60
2022/08/10 01:15:17;;;;;;;8.77;5.32;;;20.20;56.10;;;;;;5042699;28;20669;-60
2022/08/10 01:18:18;;;;;;;6.63;4.65;;;20.10;56.00;;;;;;5051525;28;20544;-61
2022/08/10 01:21:15;;;;;;;7.68;5.57;;;20.00;56.30;;;;;;5052807;28;20192;-60
2022/08/10 01:24:04;;;;;;;5.32;3.40;;;20.00;56.20;;;;;;5052884;28;20217;-60
2022/08/10 01:26:48;;;;;;;3.60;3.15;;;20.00;55.80;;;;;;5053209;28;20205;-60
2022/08/10 01:29:46;;;;;;;2.33;2.13;;;20.00;55.80;;;;;;5052061;28;20652;-60
2022/08/10 01:32:16;;;;;;;3.05;1.90;;;20.00;55.80;;;;;;5052770;28;20265;-60
2022/08/10 01:34:52;;;;;;;2.00;1.60;;;20.00;55.80;;;;;;5052911;28;20173;-60
2022/08/10 01:37:22;;;;;;;1.90;1.58;;;20.00;55.90;;;;;;5052922;28;20169;-60
2022/08/10 01:39:56;;;;;;;3.95;2.97;;;20.00;56.00;;;;;;5050886;28;20186;-60
2022/08/10 01:42:23;;;;;;;4.82;2.10;;;20.00;56.10;;;;;;5052560;28;20192;-60
2022/08/10 01:44:54;;;;;;;2.22;2.00;;;19.90;56.20;;;;;;5052491;28;20185;-61
2022/08/10 01:50:34;;;;;;;2.97;1.80;;;19.90;56.20;;;;;;5046233;28;20247;-60
2022/08/10 01:53:05;;;;;;;2.13;1.83;;;19.80;56.50;;;;;;5052505;28;20215;-60
2022/08/10 01:55:32;;;;;;;2.10;1.90;;;19.80;56.50;;;;;;5052470;28;20185;-60
2022/08/10 01:58:01;;;;;;;2.42;1.83;;;19.80;56.40;;;;;;5051830;28;20538;-60
2022/08/10 02:00:29;;;;;;;3.72;1.77;;;19.80;56.40;;;;;;5052088;28;20178;-60
2022/08/10 02:02:59;;;;;;;2.05;1.70;;;19.80;56.70;;;;;;5052307;28;20230;-60
2022/08/10 02:05:26;;;;;;;2.40;2.00;;;19.70;56.60;;;;;;5050546;28;20185;-60
2022/08/10 02:07:55;;;;;;;2.00;1.73;;;19.70;56.60;;;;;;5051491;28;20749;-60
2022/08/10 02:10:23;;;;;;;4.07;1.85;;;19.70;56.80;;;;;;5051933;28;20192;-60
2022/08/10 02:12:50;;;;;;;1.90;1.77;;;19.70;57.10;;;;;;5051698;28;20189;-60
2022/08/10 02:15:18;;;;;;;1.83;1.73;;;19.60;57.20;;;;;;5049796;28;20170;-60
2022/08/10 02:17:49;;;;;;;1.92;1.55;;;19.60;57.10;;;;;;5052202;28;20200;-60
2022/08/10 02:20:19;;;;;;;1.92;1.77;;;19.60;57.20;;;;;;5051649;28;20177;-60
2022/08/10 02:22:49;;;;;;;3.47;1.60;;;19.60;57.40;;;;;;5051934;28;20182;-60
2022/08/10 02:25:18;;;;;;;3.58;2.10;;;19.50;57.40;;;;;;5051654;28;20198;-60
2022/08/10 02:27:45;;;;;;;2.05;1.85;;;19.50;57.40;;;;;;5051316;28;20707;-60
2022/08/10 02:30:11;;;;;;;1.73;1.63;;;19.50;57.50;;;;;;5051225;28;20721;-60
2022/08/10 02:32:37;;;;;;;4.00;1.80;;;19.50;57.60;;;;;;5051037;28;20188;-60
2022/08/10 02:35:11;;;;;;;2.75;1.75;;;19.60;57.80;;;;;;5051764;28;20198;-60
2022/08/10 02:37:40;;;;;;;3.38;2.08;;;19.60;57.50;;;;;;5051424;28;20238;-60
2022/08/10 02:40:07;;;;;;;3.35;1.98;;;19.60;57.30;;;;;;5050795;28;20190;-60
2022/08/10 02:43:25;;;;;;;3.67;1.73;;;19.60;57.30;;;;;;5040221;28;20193;-60
2022/08/10 02:46:08;;;;;;;2.35;1.70;;;19.50;57.40;;;;;;5030849;28;20217;-61
2022/08/10 02:48:53;;;;;;;1.70;1.60;;;19.40;57.50;;;;;;5051269;28;20304;-60
2022/08/10 02:51:28;;;;;;;2.40;1.83;;;19.40;57.80;;;;;;5051361;28;20531;-60
2022/08/10 02:54:04;;;;;;;4.00;1.65;;;19.40;57.80;;;;;;5051233;28;20180;-60
2022/08/10 02:56:58;;;;;;;1.95;1.70;;;19.40;57.80;;;;;;5038859;28;20177;-60
2022/08/10 02:59:31;;;;;;;2.15;1.58;;;19.40;58.20;;;;;;5051318;28;20186;-60
2022/08/10 03:02:00;;;;;;;3.75;1.90;;;19.40;58.00;;;;;;5050227;28;20651;-60
2022/08/10 03:04:34;;;;;;;2.63;1.80;;;19.40;58.00;;;;;;5044304;28;20186;-60
2022/08/10 03:07:04;;;;;;;1.63;1.52;;;19.40;57.90;;;;;;5037767;28;20212;-60
2022/08/10 03:09:33;;;;;;;3.63;2.15;;;19.40;57.90;;;;;;5051016;28;20174;-60
2022/08/10 03:12:00;;;;;;;2.60;2.20;;;19.40;57.80;;;;;;5050279;28;20216;-60
2022/08/10 03:14:27;;;;;;;2.75;1.65;;;19.40;58.10;;;;;;5041717;28;20703;-61
2022/08/10 03:16:55;;;;;;;2.10;1.92;;;19.30;58.20;;;;;;5051003;28;20185;-60
2022/08/10 03:19:23;;;;;;;3.10;2.10;;;19.30;58.20;;;;;;5049391;28;20181;-60
2022/08/10 03:21:50;;;;;;;1.98;1.73;;;19.30;58.30;;;;;;5050982;28;20546;-60
2022/08/10 03:24:21;;;;;;;2.13;1.85;;;19.40;58.20;;;;;;5050747;28;20236;-60
2022/08/10 03:26:48;;;;;;;3.05;1.60;;;19.30;58.10;;;;;;5042771;28;20205;-60
2022/08/10 03:29:15;;;;;;;1.83;1.73;;;19.30;58.30;;;;;;5050195;28;20700;-60
2022/08/10 03:31:41;;;;;;;3.03;1.70;;;19.30;58.40;;;;;;5051192;28;20624;-60
2022/08/10 03:34:07;;;;;;;4.10;1.70;;;19.30;58.40;;;;;;5050878;28;20256;-60
2022/08/10 03:36:32;;;;;;;2.35;1.85;;;19.30;58.60;;;;;;5050763;28;20256;-60
2022/08/10 03:38:58;;;;;;;2.53;1.65;;;19.20;58.70;;;;;;5049454;28;20187;-60
2022/08/10 03:41:35;;;;;;;2.40;2.00;;;19.20;58.90;;;;;;5049369;28;20257;-60
2022/08/10 03:44:01;;;;;;;3.20;2.00;;;19.20;58.70;;;;;;5051963;28;20178;-60
2022/08/10 03:46:29;;;;;;;1.95;1.70;;;19.20;58.90;;;;;;5054859;28;20235;-60
2022/08/10 03:48:59;;;;;;;2.80;1.80;;;19.10;58.80;;;;;;5055101;28;20185;-60
2022/08/10 03:51:25;;;;;;;2.05;1.83;;;19.20;59.00;;;;;;5053920;28;20557;-60
2022/08/10 03:53:51;;;;;;;5.15;1.80;;;19.30;58.90;;;;;;5054605;28;20179;-61
2022/08/10 03:56:18;;;;;;;1.70;1.60;;;19.30;58.90;;;;;;5054553;28;20209;-60
2022/08/10 03:58:43;;;;;;;8.07;5.45;;;19.20;58.80;;;;;;5053852;28;20186;-60
2022/08/10 04:01:09;;;;;;;6.47;3.63;;;19.20;59.00;;;;;;5054105;28;20231;-60
2022/08/10 04:03:35;;;;;;;5.05;3.92;;;19.20;58.90;;;;;;5053792;28;20544;-60
2022/08/10 04:06:01;;;;;;;4.65;3.28;;;19.20;59.00;;;;;;5052612;28;20189;-59
2022/08/10 04:08:27;;;;;;;5.03;2.28;;;19.30;59.20;;;;;;5053515;28;20684;-60
2022/08/10 04:10:52;;;;;;;2.97;2.60;;;19.30;58.90;;;;;;5053976;28;20189;-60
2022/08/10 04:13:18;;;;;;;3.25;1.90;;;19.20;59.20;;;;;;5054471;28;20632;-59
2022/08/10 04:15:44;;;;;;;3.20;2.22;;;19.20;59.00;;;;;;5054710;28;20197;-59
2022/08/10 04:18:09;;;;;;;4.45;1.90;;;19.10;59.10;;;;;;5054549;28;20251;-58
2022/08/10 04:20:49;;;;;;;3.70;2.13;;;19.10;59.20;;;;;;5052061;28;20189;-58
2022/08/10 04:23:20;;;;;;;2.17;1.98;;;19.10;59.30;;;;;;5054422;28;20738;-58
2022/08/10 04:25:46;;;;;;;5.40;2.45;;;19.20;59.30;;;;;;5052891;28;20186;-59
2022/08/10 04:28:12;;;;;;;4.30;2.63;;;19.20;59.30;;;;;;5053496;28;20225;-61
2022/08/10 04:30:39;;;;;;;5.03;3.70;;;19.20;59.60;;;;;;5053846;28;20188;-63
2022/08/10 04:33:07;;;;;;;3.15;2.90;;;19.20;60.10;;;;;;5054192;28;20177;-63
2022/08/10 04:35:34;;;;;;;13.82;8.48;;;19.20;59.50;;;;;;5053420;28;20185;-59
2022/08/10 04:38:01;;;;;;;76.45;44.22;;;19.20;59.70;;;;;;5053365;28;20177;-61
2022/08/10 04:40:27;;;;;;;27.17;13.55;;;19.30;60.20;;;;;;5053628;28;20264;-63
2022/08/10 04:42:53;;;;;;;5.28;3.03;;;19.30;59.70;;;;;;5053967;28;20180;-60
2022/08/10 04:45:18;;;;;;;12.65;8.65;;;19.30;59.50;;;;;;5052925;28;20178;-65
2022/08/10 04:47:44;;;;;;;10.88;6.82;;;19.30;59.60;;;;;;5053955;28;20217;-60
2022/08/10 04:50:10;;;;;;;80.88;48.22;;;19.20;59.60;;;;;;5053581;28;20212;-63
2022/08/10 04:52:35;;;;;;;9.82;7.60;;;19.20;59.60;;;;;;5053048;28;20460;-61
2022/08/10 04:55:01;;;;;;;5.78;4.28;;;19.10;59.50;;;;;;5053346;28;20585;-58
2022/08/10 04:57:27;;;;;;;6.05;4.65;;;19.00;59.70;;;;;;5051842;28;20182;-60
2022/08/10 04:59:52;;;;;;;3.42;3.13;;;19.00;60.20;;;;;;5053035;28;20177;-60
2022/08/10 05:02:18;;;;;;;2.97;2.47;;;19.10;60.70;;;;;;5052849;28;20262;-60
2022/08/10 05:04:44;;;;;;;2.70;1.98;;;19.30;60.00;;;;;;5049020;28;20256;-62
2022/08/10 05:07:12;;;;;;;3.97;1.83;;;19.40;59.50;;;;;;5052984;28;20213;-62
2022/08/10 05:09:39;;;;;;;2.05;1.70;;;19.60;59.10;;;;;;5053643;28;20181;-62
2022/08/10 05:12:05;;;;;;;3.65;1.90;;;19.70;58.80;;;;;;5053286;28;20674;-61
2022/08/10 05:14:31;;;;;;;2.25;2.03;;;19.80;58.60;;;;;;5053225;28;20190;-62
2022/08/10 05:16:57;;;;;;;3.15;1.70;;;20.00;58.30;;;;;;5053293;28;20181;-62
2022/08/10 05:19:22;;;;;;;1.75;1.65;;;20.30;58.20;;;;;;5052944;28;20184;-62
2022/08/10 05:21:48;;;;;;;2.58;1.88;;;20.50;57.70;;;;;;5053420;28;20227;-61
2022/08/10 05:24:13;;;;;;;2.58;1.75;;;20.70;57.40;;;;;;5051943;28;20233;-62
2022/08/10 05:26:39;;;;;;;1.77;1.67;;;21.00;56.90;;;;;;5053372;28;20211;-62
2022/08/10 05:29:04;;;;;;;2.17;1.98;;;21.10;56.40;;;;;;5052725;28;20274;-62
2022/08/10 05:31:30;;;;;;;2.25;1.95;;;21.30;56.20;;;;;;5051794;28;20224;-62
2022/08/10 05:33:55;;;;;;;2.08;1.60;;;21.50;56.00;;;;;;5053177;28;20721;-63
2022/08/10 05:36:21;;;;;;;2.47;1.80;;;21.70;56.10;;;;;;5052903;28;20593;-62
2022/08/10 05:38:48;;;;;;;3.78;1.70;;;21.90;55.00;;;;;;5051264;28;20190;-62
2022/08/10 05:41:15;;;;;;;2.13;1.92;;;22.10;54.90;;;;;;5053489;28;20204;-62
2022/08/10 05:43:41;;;;;;;1.70;1.60;;;22.30;54.70;;;;;;5053011;28;20704;-62
2022/08/10 05:46:07;;;;;;;2.42;2.00;;;22.60;54.50;;;;;;5052441;28;20177;-62
2022/08/10 05:48:33;;;;;;;4.05;1.80;;;23.00;53.90;;;;;;5052836;28;20217;-62
2022/08/10 05:50:59;;;;;;;2.05;1.83;;;23.30;53.10;;;;;;5052720;28;20662;-62
2022/08/10 05:53:25;;;;;;;2.03;1.80;;;23.70;52.90;;;;;;5052810;28;20265;-62
2022/08/10 05:55:50;;;;;;;1.70;1.60;;;24.10;52.20;;;;;;5051868;28;20196;-62
2022/08/10 05:58:16;;;;;;;1.80;1.70;;;24.50;51.60;;;;;;5052649;28;20231;-63
2022/08/10 06:00:45;;;;;;;2.97;2.10;;;24.90;51.20;;;;;;5052518;28;20280;-62
2022/08/10 06:03:13;;;;;;;3.33;1.58;;;25.30;50.50;;;;;;5051948;28;20652;-63
2022/08/10 06:05:42;;;;;;;4.13;1.77;;;25.70;49.50;;;;;;5036943;28;20186;-62
2022/08/10 06:08:17;;;;;;;2.75;1.55;;;25.70;49.60;;;;;;5050236;28;20300;-62
2022/08/10 06:10:45;;;;;;;1.80;1.60;;;25.90;48.90;;;;;;5035680;28;20207;-65
2022/08/10 06:15:58;;;;;;;5.07;1.73;;;26.40;47.80;;;;;;5052098;28;20220;-64
2022/08/10 06:18:24;;;;;;;2.20;1.58;;;26.40;47.50;;;;;;5052028;28;20196;-64
2022/08/10 06:20:50;;;;;;;3.33;1.90;;;26.40;47.50;;;;;;5051752;28;20177;-64
2022/08/10 06:23:17;;;;;;;3.38;1.83;;;26.40;47.60;;;;;;5052086;28;20719;-64
2022/08/10 06:25:43;;;;;;;3.70;1.60;;;26.50;47.50;;;;;;5052107;28;20200;-66
2022/08/10 06:28:13;;;;;;;3.40;1.60;;;26.60;47.50;;;;;;5052227;28;20209;-65
2022/08/10 06:30:39;;;;;;;2.22;2.00;;;26.90;47.30;;;;;;5052216;28;20177;-64
2022/08/10 06:33:07;;;;;;;3.65;1.92;;;27.10;47.00;;;;;;5052432;28;20178;-66
2022/08/10 06:35:33;;;;;;;2.40;1.70;;;27.40;47.10;;;;;;5051683;28;20528;-64
2022/08/10 06:38:02;;;;;;;2.90;1.70;;;27.40;46.30;;;;;;5050831;28;20181;-62
2022/08/10 06:40:32;;;;;;;3.58;1.70;;;27.60;46.30;;;;;;5050573;28;20185;-66
2022/08/10 06:43:00;;;;;;;1.70;1.60;;;28.10;45.60;;;;;;5049829;28;20641;-65
2022/08/10 06:45:48;;;;;;;1.80;1.52;;;28.20;45.30;;;;;;5052040;28;20166;-65
2022/08/10 06:48:23;;;;;;;2.05;1.80;;;28.70;45.30;;;;;;5050876;28;20251;-65
2022/08/10 06:50:53;;;;;;;5.97;2.15;;;29.30;44.30;;;;;;5051896;28;20172;-65
2022/08/10 06:53:21;;;;;;;3.88;1.63;;;29.70;43.60;;;;;;5051779;28;20188;-65
2022/08/10 06:55:58;;;;;;;5.50;2.17;;;30.20;43.30;;;;;;5051949;28;20579;-65
2022/08/10 06:58:36;;;;;;;3.25;1.63;;;30.30;42.60;;;;;;5051751;28;20306;-65
2022/08/10 07:01:06;;;;;;;2.05;1.58;;;30.70;42.60;;;;;;5051601;28;20173;-65
2022/08/10 07:03:37;;;;;;;2.08;1.63;;;31.10;41.60;;;;;;5051750;28;20260;-65
2022/08/10 07:06:06;;;;;;;3.78;1.65;;;31.10;41.10;;;;;;5051474;28;20189;-65
2022/08/10 07:08:35;;;;;;;1.50;1.40;;;31.10;41.10;;;;;;5051723;28;20212;-65
2022/08/10 07:11:02;;;;;;;2.70;1.40;;;31.40;41.20;;;;;;5051466;28;20636;-66
2022/08/10 07:13:30;;;;;;;1.98;1.45;;;31.50;40.70;;;;;;5051706;28;20181;-66
2022/08/10 07:15:58;;;;;;;1.60;1.50;;;31.60;40.40;;;;;;5050359;28;20173;-65
2022/08/10 07:18:24;;;;;;;2.00;1.80;;;31.50;40.60;;;;;;5051446;28;20213;-65
2022/08/10 07:20:52;;;;;;;1.75;1.60;;;31.60;40.70;;;;;;5051736;28;20177;-65
2022/08/10 07:23:20;;;;;;;3.45;1.55;;;31.80;40.50;;;;;;5051502;28;20299;-66
2022/08/10 07:25:47;;;;;;;1.83;1.42;;;32.20;40.00;;;;;;5051561;28;20173;-66
2022/08/10 07:28:14;;;;;;;5.60;1.73;;;32.30;40.10;;;;;;5051508;28;20741;-66
2022/08/10 07:30:40;;;;;;;2.10;1.48;;;32.60;39.80;;;;;;5051662;28;20207;-65
2022/08/10 07:33:08;;;;;;;1.65;1.50;;;32.60;39.00;;;;;;5051396;28;20208;-65
2022/08/10 07:35:35;;;;;;;1.60;1.50;;;32.50;39.20;;;;;;5051586;28;20256;-66
2022/08/10 07:38:02;;;;;;;3.75;1.50;;;32.70;39.40;;;;;;5051440;28;20624;-66
2022/08/10 07:40:29;;;;;;;1.70;1.60;;;32.80;39.20;;;;;;5050088;28;20647;-66
2022/08/10 07:42:58;;;;;;;2.17;1.65;;;33.00;39.00;;;;;;5051563;28;20277;-66
2022/08/10 07:45:27;;;;;;;3.92;1.70;;;33.10;38.50;;;;;;5051376;28;20251;-66
2022/08/10 07:47:59;;;;;;;3.35;1.60;;;33.00;38.50;;;;;;5051346;28;20573;-66
2022/08/10 07:50:27;;;;;;;2.17;1.50;;;32.90;38.60;;;;;;5051491;28;20256;-66
2022/08/10 07:52:58;;;;;;;2.45;1.50;;;32.90;38.80;;;;;;5051369;28;20170;-66
2022/08/10 07:55:24;;;;;;;3.03;1.80;;;32.80;38.70;;;;;;5051255;28;20181;-66
2022/08/10 07:57:52;;;;;;;2.50;1.50;;;32.90;39.10;;;;;;5051410;28;20239;-66
2022/08/10 08:00:18;;;;;;;4.50;1.48;;;33.30;39.30;;;;;;5051260;28;20169;-66
2022/08/10 08:02:51;;;;;;;2.03;1.40;;;33.50;38.10;;;;;;5050099;28;20231;-66
2022/08/10 08:05:20;;;;;;;2.63;1.60;;;33.20;38.60;;;;;;5051176;28;20716;-66
2022/08/10 08:07:47;;;;;;;2.80;1.45;;;33.30;38.70;;;;;;5051149;28;20225;-66
2022/08/10 08:10:15;;;;;;;3.08;1.42;;;33.30;38.10;;;;;;5051183;28;20169;-66
2022/08/10 08:12:41;;;;;;;2.58;1.40;;;32.80;38.50;;;;;;5051239;28;20650;-66
2022/08/10 08:15:10;;;;;;;4.57;1.50;;;32.60;39.40;;;;;;5051097;28;20176;-65
2022/08/10 08:17:38;;;;;;;2.08;1.70;;;32.70;39.20;;;;;;5051154;28;20176;-66
2022/08/10 08:20:05;;;;;;;2.63;1.80;;;33.10;39.50;;;;;;5050998;28;20219;-66
2022/08/10 08:22:31;;;;;;;1.75;1.52;;;33.40;38.80;;;;;;5051123;28;20537;-66
2022/08/10 08:24:58;;;;;;;1.60;1.45;;;33.60;38.40;;;;;;5050964;28;20224;-66
2022/08/10 08:27:26;;;;;;;3.92;1.50;;;33.80;38.00;;;;;;5050983;28;20201;-66
2022/08/10 08:29:52;;;;;;;2.13;1.70;;;33.60;38.00;;;;;;5052113;28;20264;-66
2022/08/10 08:32:24;;;;;;;2.63;1.63;;;33.60;38.20;;;;;;5054580;28;20183;-66
2022/08/10 08:34:57;;;;;;;2.22;1.50;;;33.80;38.60;;;;;;5054598;28;20191;-66
2022/08/10 08:37:26;;;;;;;3.63;1.48;;;34.00;38.20;;;;;;5054381;28;20628;-66
2022/08/10 08:39:52;;;;;;;2.03;1.40;;;34.30;37.80;;;;;;5053486;28;20231;-66
2022/08/10 08:42:32;;;;;;;2.85;1.50;;;34.50;37.50;;;;;;5054516;28;20169;-66
2022/08/10 08:45:40;;;;;;;3.90;1.50;;;34.70;38.10;;;;;;5054506;28;20173;-66
2022/08/10 08:48:36;;;;;;;3.75;1.70;;;34.70;36.90;;;;;;5047198;28;20231;-67
2022/08/10 08:51:04;;;;;;;1.23;1.13;;;34.30;36.20;;;;;;5054368;28;20169;-67
2022/08/10 08:53:45;;;;;;;1.83;1.35;;;34.10;36.80;;;;;;5054354;28;20184;-66
2022/08/10 08:56:23;;;;;;;1.80;1.33;;;33.60;36.50;;;;;;5052900;28;20546;-66
2022/08/10 08:58:49;;;;;;;3.90;1.40;;;33.20;37.50;;;;;;5054225;28;20173;-66
2022/08/10 09:01:39;;;;;;;2.10;1.40;;;33.20;37.80;;;;;;5054035;28;20177;-66
2022/08/10 09:04:22;;;;;;;2.33;1.25;;;33.30;38.00;;;;;;5053751;28;20260;-66
2022/08/10 09:07:02;;;;;;;2.53;1.35;;;33.10;37.00;;;;;;5053981;28;20204;-66
2022/08/10 09:09:48;;;;;;;2.05;1.30;;;33.00;36.60;;;;;;5053901;28;20173;-66
2022/08/10 09:12:37;;;;;;;2.63;1.60;;;32.20;36.60;;;;;;5053856;28;20196;-66
2022/08/10 09:15:16;;;;;;;2.33;1.63;;;32.00;37.80;;;;;;5053207;28;20647;-66
2022/08/10 09:17:57;;;;;;;5.10;1.58;;;31.80;37.80;;;;;;5052591;28;20667;-66
2022/08/10 09:20:33;;;;;;;3.50;1.30;;;;;;;;;;5053831;28;20855;-66
2022/08/10 09:23:13;;;;;;;3.47;1.33;;;31.70;37.30;;;;;;5052293;28;20655;-66
2022/08/10 09:25:46;;;;;;;4.18;1.40;;;31.60;38.00;;;;;;5053689;28;20185;-66
2022/08/10 09:28:21;;;;;;;1.42;1.33;;;31.80;38.70;;;;;;5053502;28;20281;-66
2022/08/10 09:31:07;;;;;;;3.53;1.33;;;32.00;38.70;;;;;;5053525;28;20189;-66
2022/08/10 09:33:58;;;;;;;1.75;1.27;;;32.00;38.30;;;;;;5052360;28;20216;-66
2022/08/10 09:36:41;;;;;;;1.42;1.30;;;31.70;38.20;;;;;;5053433;28;20178;-66
2022/08/10 09:39:22;;;;;;;3.22;1.55;;;31.80;39.30;;;;;;5051894;28;20185;-67
2022/08/10 09:42:27;;;;;;;2.75;1.23;;;32.00;37.10;;;;;;5051074;28;20227;-67
2022/08/10 09:45:08;;;;;;;1.55;1.42;;;32.00;37.30;;;;;;5052872;28;20276;-67
2022/08/10 09:47:55;;;;;;;2.50;1.42;;;32.00;37.00;;;;;;5053274;28;20267;-67
2022/08/10 09:50:51;;;;;;;2.42;1.10;;;31.90;36.60;;;;;;5053269;28;20170;-66
2022/08/10 09:53:37;;;;;;;1.30;1.20;;;31.80;36.30;;;;;;5053092;28;20165;-66
2022/08/10 09:56:33;;;;;;;3.42;1.25;;;31.70;36.30;;;;;;5053163;28;20768;-66
2022/08/10 09:59:09;;;;;;;1.30;1.20;;;31.90;36.70;;;;;;5053211;28;20227;-66
2022/08/10 10:01:52;;;;;;;2.22;1.30;;;32.20;36.30;;;;;;5052997;28;20195;-66
2022/08/10 10:04:32;;;;;;;5.15;1.40;;;32.10;35.90;;;;;;5052815;28;20181;-66
2022/08/10 10:07:00;;;;;;;3.50;1.48;;;32.00;35.90;;;;;;5052857;28;20722;-66
2022/08/10 10:10:07;;;;;;;3.53;1.40;;;31.80;36.50;;;;;;5052843;28;20169;-66
2022/08/10 10:12:51;;;;;;;2.28;1.38;;;31.50;35.60;;;;;;5052718;28;20644;-65
2022/08/10 10:15:39;;;;;;;2.33;1.30;;;31.20;35.60;;;;;;5052724;28;20183;-66
2022/08/10 10:18:16;;;;;;;1.30;1.20;;;31.40;36.30;;;;;;5051364;28;20230;-65
2022/08/10 10:21:00;;;;;;;1.85;1.27;;;31.50;35.10;;;;;;5052739;28;20608;-65
2022/08/10 10:23:49;;;;;;;3.80;1.35;;;31.50;34.80;;;;;;5052299;28;20221;-66
2022/08/10 10:26:40;;;;;;;1.83;1.30;;;31.50;34.60;;;;;;5052498;28;20413;-66
2022/08/10 10:29:16;;;;;;;1.63;1.20;;;31.60;35.00;;;;;;5052391;28;20196;-66
2022/08/10 10:31:53;;;;;;;3.03;1.40;;;31.90;34.60;;;;;;5052624;28;20649;-66
2022/08/10 10:34:46;;;;;;;5.00;1.33;;;32.00;34.20;;;;;;5052316;28;20181;-66
2022/08/10 10:37:13;;;;;;;3.33;1.40;;;32.00;34.30;;;;;;5052377;28;20581;-66
2022/08/10 10:39:43;;;;;;;1.25;1.17;;;32.10;34.00;;;;;;5051162;28;20215;-66
2022/08/10 10:42:30;;;;;;;2.38;1.20;;;32.00;34.20;;;;;;5052132;28;20288;-66
2022/08/10 10:44:58;;;;;;;4.50;1.45;;;32.00;33.80;;;;;;5052083;28;20184;-66
2022/08/10 10:48:04;;;;;;;1.60;1.35;;;31.90;34.20;;;;;;5051926;28;20609;-66
2022/08/10 10:50:55;;;;;;;1.98;1.35;;;31.90;33.50;;;;;;5050903;28;20536;-67
2022/08/10 10:53:37;;;;;;;1.42;1.30;;;31.90;34.10;;;;;;5051781;28;20178;-66
2022/08/10 10:56:26;;;;;;;1.67;1.48;;;31.80;34.10;;;;;;5051954;28;20269;-66
2022/08/10 10:59:29;;;;;;;1.45;1.20;;;31.70;33.60;;;;;;5052113;28;20703;-66
2022/08/10 11:02:08;;;;;;;1.20;1.10;;;31.70;34.00;;;;;;5051997;28;20173;-66
2022/08/10 11:04:44;;;;;;;1.13;0.98;;;31.70;34.00;;;;;;5051945;28;20179;-67
2022/08/10 11:07:34;;;;;;;2.88;1.17;;;31.60;34.00;;;;;;5051767;28;20216;-66
2022/08/10 11:10:06;;;;;;;1.35;1.25;;;31.50;33.90;;;;;;5051848;28;20178;-66
2022/08/10 11:12:45;;;;;;;1.40;1.30;;;31.60;34.00;;;;;;5051988;28;20173;-66
2022/08/10 11:15:35;;;;;;;2.35;1.30;;;31.70;34.00;;;;;;5051757;28;20222;-66
2022/08/10 11:18:26;;;;;;;2.83;1.50;;;31.80;33.30;;;;;;5051785;28;20234;-66
2022/08/10 11:21:30;;;;;;;7.55;1.50;;;31.80;33.40;;;;;;5051759;28;20583;-66
2022/08/10 11:24:05;;;;;;;1.30;1.20;;;31.60;33.70;;;;;;5051523;28;20248;-65
2022/08/10 11:26:59;;;;;;;1.60;1.40;;;31.80;33.50;;;;;;5051853;28;20169;-66
2022/08/10 11:29:43;;;;;;;1.33;1.25;;;31.80;33.50;;;;;;5051631;28;20200;-67
2022/08/10 11:32:18;;;;;;;3.60;1.45;;;31.70;32.90;;;;;;5051601;28;20204;-66
2022/08/10 11:35:18;;;;;;;1.27;1.17;;;31.70;33.20;;;;;;5051722;28;20169;-66
2022/08/10 11:37:55;;;;;;;2.03;1.20;;;31.80;33.40;;;;;;5051131;28;20208;-66
2022/08/10 11:40:26;;;;;;;2.47;1.30;;;32.00;33.00;;;;;;5050553;28;20180;-66
2022/08/10 11:42:58;;;;;;;5.35;1.30;;;32.00;32.60;;;;;;5050339;28;20675;-67
2022/08/10 11:45:30;;;;;;;2.08;1.15;;;32.00;33.00;;;;;;5051426;28;20170;-66
2022/08/10 11:48:01;;;;;;;1.40;1.30;;;32.10;33.30;;;;;;5050309;28;20575;-66
2022/08/10 11:50:35;;;;;;;2.08;1.48;;;32.30;33.40;;;;;;5051518;28;20180;-67
2022/08/10 11:53:22;;;;;;;1.30;1.15;;;32.40;32.40;;;;;;5051608;28;20607;-66
2022/08/10 11:55:54;;;;;;;1.63;1.10;;;32.20;33.30;;;;;;5051678;28;20663;-67
2022/08/10 12:01:11;;;;;;;1.40;1.30;;;32.40;32.80;;;;;;5051207;28;20181;-66
2022/08/10 12:03:40;;;;;;;1.65;1.30;;;32.40;32.20;;;;;;5051345;28;20170;-66
2022/08/10 12:06:12;;;;;;;2.40;1.55;;;32.30;32.10;;;;;;5052900;28;20181;-66
2022/08/10 12:08:40;;;;;;;3.15;2.30;;;32.20;32.70;;;;;;5055065;28;20213;-66
2022/08/10 12:11:09;;;;;;;1.88;1.35;;;32.20;33.00;;;;;;5054917;28;20161;-66
2022/08/10 12:13:56;;;;;;;1.67;1.40;;;32.10;32.70;;;;;;5055048;28;20186;-66
2022/08/10 12:16:24;;;;;;;1.27;1.23;;;31.80;32.90;;;;;;5055216;28;20641;-66
2022/08/10 12:19:08;;;;;;;2.67;1.20;;;31.80;33.00;;;;;;5055005;28;20173;-67
2022/08/10 12:21:43;;;;;;;1.30;1.20;;;32.00;33.00;;;;;;5055119;28;20187;-66
2022/08/10 12:24:20;;;;;;;1.15;1.02;;;32.00;32.70;;;;;;5053377;28;20231;-67
2022/08/10 12:27:19;;;;;;;3.08;1.17;;;32.00;32.70;;;;;;5053385;28;20545;-66
2022/08/10 12:29:53;;;;;;;1.02;1.02;;;32.10;33.10;;;;;;5053338;28;20646;-66
2022/08/10 12:32:57;;;;;;;2.58;1.25;;;32.30;32.20;;;;;;5054593;28;20178;-67
2022/08/10 12:36:02;;;;;;;3.33;1.50;;;32.50;32.50;;;;;;5054416;28;20184;-66
2022/08/10 12:38:46;;;;;;;1.48;1.30;;;32.40;31.80;;;;;;5053419;28;20165;-66
2022/08/10 12:41:30;;;;;;;3.78;1.45;;;32.30;32.20;;;;;;5054347;28;20253;-67
2022/08/10 12:44:05;;;;;;;3.70;1.15;;;32.10;32.00;;;;;;5054540;28;20584;-66
2022/08/10 12:46:31;;;;;;;2.33;1.27;;;32.00;32.40;;;;;;5054406;28;20219;-67
2022/08/10 12:48:56;;;;;;;2.63;1.52;;;32.10;33.00;;;;;;5052976;28;20221;-66
2022/08/10 12:51:29;;;;;;;2.25;1.30;;;32.30;32.40;;;;;;5054303;28;20170;-66
2022/08/10 12:54:15;;;;;;;2.13;1.25;;;32.30;32.00;;;;;;5052944;28;20188;-66
2022/08/10 12:56:49;;;;;;;2.45;1.33;;;32.10;32.10;;;;;;5054144;28;20173;-66
2022/08/10 12:59:17;;;;;;;1.15;1.13;;;31.90;32.40;;;;;;5054144;28;20176;-66
2022/08/10 13:01:49;;;;;;;3.50;1.30;;;32.00;32.10;;;;;;5053949;28;20169;-66
2022/08/10 13:04:16;;;;;;;1.30;1.20;;;32.00;32.20;;;;;;5054031;28;20201;-66
2022/08/10 13:06:46;;;;;;;1.48;1.25;;;32.00;32.40;;;;;;5053986;28;20175;-66
2022/08/10 13:09:13;;;;;;;1.10;1.10;;;32.00;32.30;;;;;;5053913;28;20223;-66
2022/08/10 13:11:41;;;;;;;1.52;1.42;;;32.20;32.40;;;;;;5053831;28;20185;-66
2022/08/10 13:14:19;;;;;;;1.98;1.40;;;32.30;32.40;;;;;;5053674;28;20212;-65
2022/08/10 13:16:47;;;;;;;1.95;1.25;;;32.20;32.20;;;;;;5053504;28;20162;-67
2022/08/10 13:19:16;;;;;;;1.77;1.30;;;32.00;32.60;;;;;;5053734;28;20177;-66
2022/08/10 13:21:42;;;;;;;3.13;1.17;;;31.80;32.70;;;;;;5053831;28;20227;-66
2022/08/10 13:24:17;;;;;;;2.15;1.38;;;31.60;33.00;;;;;;5053401;28;20224;-66